sensor_id;sensor_type;location;lat;lon;timestamp;P1;durP1;ratioP1;P2;durP2;ratioP2
21334;SDS011;69435;52.670;13.544;2023-11-19T00:02:13;7.97;;;4.63;;
21334;SDS011;69435;52.670;13.544;2023-11-19T00:05:00;6.33;;;5.73;;
21334;SDS011;69435;52.670;13.544;2023-11-19T00:07:46;9.00;;;5.23;;
21334;SDS011;69435;52.670;13.544;2023-11-19T00:10:33;7.57;;;5.80;;
21334;SDS011;69435;52.670;13.544;2023-11-19T00:13:19;6.77;;;5.70;;
21334;SDS011;69435;52.670;13.544;2023-11-19T00:16:05;7.40;;;5.13;;
21334;SDS011;69435;52.670;13.544;2023-11-19T00:18:55;5.17;;;4.67;;
21334;SDS011;69435;52.670;13.544;2023-11-19T00:21:41;5.67;;;5.13;;
21334;SDS011;69435;52.670;13.544;2023-11-19T00:24:27;6.10;;;5.50;;
21334;SDS011;69435;52.670;13.544;2023-11-19T00:27:13;6.67;;;5.40;;
21334;SDS011;69435;52.670;13.544;2023-11-19T00:30:00;6.40;;;5.73;;
21334;SDS011;69435;52.670;13.544;2023-11-19T00:32:46;5.23;;;4.77;;
21334;SDS011;69435;52.670;13.544;2023-11-19T00:35:32;7.30;;;5.60;;
21334;SDS011;69435;52.670;13.544;2023-11-19T00:38:18;5.50;;;5.00;;
21334;SDS011;69435;52.670;13.544;2023-11-19T00:41:04;6.20;;;4.90;;
21334;SDS011;69435;52.670;13.544;2023-11-19T00:43:51;7.43;;;5.53;;
21334;SDS011;69435;52.670;13.544;2023-11-19T00:46:37;5.40;;;4.90;;
21334;SDS011;69435;52.670;13.544;2023-11-19T00:49:23;6.97;;;5.33;;
21334;SDS011;69435;52.670;13.544;2023-11-19T00:52:09;6.37;;;5.77;;
21334;SDS011;69435;52.670;13.544;2023-11-19T00:54:55;9.37;;;6.17;;
21334;SDS011;69435;52.670;13.544;2023-11-19T00:57:42;7.63;;;6.10;;
21334;SDS011;69435;52.670;13.544;2023-11-19T01:00:28;12.07;;;5.90;;
21334;SDS011;69435;52.670;13.544;2023-11-19T01:03:14;11.43;;;5.57;;
21334;SDS011;69435;52.670;13.544;2023-11-19T01:06:01;6.70;;;6.00;;
21334;SDS011;69435;52.670;13.544;2023-11-19T01:08:47;6.23;;;5.60;;
21334;SDS011;69435;52.670;13.544;2023-11-19T01:11:33;6.53;;;5.70;;
21334;SDS011;69435;52.670;13.544;2023-11-19T01:14:20;9.93;;;5.60;;
21334;SDS011;69435;52.670;13.544;2023-11-19T01:17:07;6.97;;;5.77;;
21334;SDS011;69435;52.670;13.544;2023-11-19T01:19:54;5.53;;;5.03;;
21334;SDS011;69435;52.670;13.544;2023-11-19T01:22:40;6.23;;;5.43;;
21334;SDS011;69435;52.670;13.544;2023-11-19T01:25:26;8.47;;;5.60;;
21334;SDS011;69435;52.670;13.544;2023-11-19T01:28:12;6.50;;;5.77;;
21334;SDS011;69435;52.670;13.544;2023-11-19T01:30:58;6.03;;;5.43;;
21334;SDS011;69435;52.670;13.544;2023-11-19T01:33:44;5.83;;;5.17;;
21334;SDS011;69435;52.670;13.544;2023-11-19T01:36:31;7.03;;;5.60;;
21334;SDS011;69435;52.670;13.544;2023-11-19T01:39:17;6.00;;;5.40;;
21334;SDS011;69435;52.670;13.544;2023-11-19T01:42:05;6.17;;;5.30;;
21334;SDS011;69435;52.670;13.544;2023-11-19T01:44:55;5.43;;;4.93;;
21334;SDS011;69435;52.670;13.544;2023-11-19T01:47:52;8.50;;;5.00;;
21334;SDS011;69435;52.670;13.544;2023-11-19T01:50:38;6.80;;;6.10;;
21334;SDS011;69435;52.670;13.544;2023-11-19T01:53:25;6.00;;;5.40;;
21334;SDS011;69435;52.670;13.544;2023-11-19T01:56:13;4.67;;;4.27;;
21334;SDS011;69435;52.670;13.544;2023-11-19T01:59:01;6.07;;;5.43;;
21334;SDS011;69435;52.670;13.544;2023-11-19T02:01:48;5.40;;;4.90;;
21334;SDS011;69435;52.670;13.544;2023-11-19T02:04:36;6.07;;;5.10;;
21334;SDS011;69435;52.670;13.544;2023-11-19T02:07:23;8.97;;;5.13;;
21334;SDS011;69435;52.670;13.544;2023-11-19T02:10:10;5.53;;;5.10;;
21334;SDS011;69435;52.670;13.544;2023-11-19T02:12:58;6.23;;;4.97;;
21334;SDS011;69435;52.670;13.544;2023-11-19T02:15:45;6.20;;;5.60;;
21334;SDS011;69435;52.670;13.544;2023-11-19T02:18:32;5.30;;;4.83;;
21334;SDS011;69435;52.670;13.544;2023-11-19T02:21:18;5.47;;;4.97;;
21334;SDS011;69435;52.670;13.544;2023-11-19T02:24:05;5.30;;;4.77;;
21334;SDS011;69435;52.670;13.544;2023-11-19T02:27:01;5.80;;;5.20;;
21334;SDS011;69435;52.670;13.544;2023-11-19T02:29:55;5.30;;;4.63;;
21334;SDS011;69435;52.670;13.544;2023-11-19T02:32:42;6.33;;;5.70;;
21334;SDS011;69435;52.670;13.544;2023-11-19T02:35:29;5.83;;;5.23;;
21334;SDS011;69435;52.670;13.544;2023-11-19T02:38:17;5.70;;;5.20;;
21334;SDS011;69435;52.670;13.544;2023-11-19T02:41:03;5.93;;;5.33;;
21334;SDS011;69435;52.670;13.544;2023-11-19T02:43:51;5.63;;;5.00;;
21334;SDS011;69435;52.670;13.544;2023-11-19T02:46:37;9.03;;;5.03;;
21334;SDS011;69435;52.670;13.544;2023-11-19T02:49:23;5.87;;;4.20;;
21334;SDS011;69435;52.670;13.544;2023-11-19T02:52:09;6.50;;;5.90;;
21334;SDS011;69435;52.670;13.544;2023-11-19T02:54:55;10.77;;;4.70;;
21334;SDS011;69435;52.670;13.544;2023-11-19T02:57:41;6.57;;;4.77;;
21334;SDS011;69435;52.670;13.544;2023-11-19T03:00:34;6.07;;;4.87;;
21334;SDS011;69435;52.670;13.544;2023-11-19T03:03:28;6.03;;;5.07;;
21334;SDS011;69435;52.670;13.544;2023-11-19T03:06:16;8.73;;;5.37;;
21334;SDS011;69435;52.670;13.544;2023-11-19T03:09:02;5.23;;;4.73;;
21334;SDS011;69435;52.670;13.544;2023-11-19T03:11:55;5.90;;;4.60;;
21334;SDS011;69435;52.670;13.544;2023-11-19T03:14:41;6.07;;;5.10;;
21334;SDS011;69435;52.670;13.544;2023-11-19T03:17:27;7.33;;;4.60;;
21334;SDS011;69435;52.670;13.544;2023-11-19T03:20:13;6.17;;;4.90;;
21334;SDS011;69435;52.670;13.544;2023-11-19T03:23:02;6.37;;;5.07;;
21334;SDS011;69435;52.670;13.544;2023-11-19T03:25:48;6.10;;;5.10;;
21334;SDS011;69435;52.670;13.544;2023-11-19T03:28:35;5.50;;;5.00;;
21334;SDS011;69435;52.670;13.544;2023-11-19T03:31:21;5.00;;;4.50;;
21334;SDS011;69435;52.670;13.544;2023-11-19T03:34:07;5.97;;;5.17;;
21334;SDS011;69435;52.670;13.544;2023-11-19T03:36:53;4.97;;;4.47;;
21334;SDS011;69435;52.670;13.544;2023-11-19T03:39:39;6.00;;;5.03;;
21334;SDS011;69435;52.670;13.544;2023-11-19T03:42:26;5.00;;;4.20;;
21334;SDS011;69435;52.670;13.544;2023-11-19T03:45:12;5.53;;;4.53;;
21334;SDS011;69435;52.670;13.544;2023-11-19T03:47:59;4.87;;;4.40;;
21334;SDS011;69435;52.670;13.544;2023-11-19T03:50:46;4.63;;;4.20;;
21334;SDS011;69435;52.670;13.544;2023-11-19T03:53:32;4.83;;;4.23;;
21334;SDS011;69435;52.670;13.544;2023-11-19T03:56:18;6.27;;;4.73;;
21334;SDS011;69435;52.670;13.544;2023-11-19T03:59:06;4.13;;;3.83;;
21334;SDS011;69435;52.670;13.544;2023-11-19T04:01:53;5.70;;;4.33;;
21334;SDS011;69435;52.670;13.544;2023-11-19T04:04:41;4.83;;;4.33;;
21334;SDS011;69435;52.670;13.544;2023-11-19T04:07:28;5.57;;;4.40;;
21334;SDS011;69435;52.670;13.544;2023-11-19T04:10:14;6.03;;;3.73;;
21334;SDS011;69435;52.670;13.544;2023-11-19T04:13:01;6.53;;;4.47;;
21334;SDS011;69435;52.670;13.544;2023-11-19T04:15:49;4.80;;;4.30;;
21334;SDS011;69435;52.670;13.544;2023-11-19T04:18:36;4.37;;;3.57;;
21334;SDS011;69435;52.670;13.544;2023-11-19T04:21:22;4.67;;;4.20;;
21334;SDS011;69435;52.670;13.544;2023-11-19T04:24:09;6.27;;;4.37;;
21334;SDS011;69435;52.670;13.544;2023-11-19T04:26:59;5.30;;;4.43;;
21334;SDS011;69435;52.670;13.544;2023-11-19T04:29:45;6.30;;;4.70;;
21334;SDS011;69435;52.670;13.544;2023-11-19T04:32:32;5.20;;;4.70;;
21334;SDS011;69435;52.670;13.544;2023-11-19T04:35:18;4.77;;;4.37;;
21334;SDS011;69435;52.670;13.544;2023-11-19T04:38:05;5.10;;;4.60;;
21334;SDS011;69435;52.670;13.544;2023-11-19T04:40:51;4.47;;;4.00;;
21334;SDS011;69435;52.670;13.544;2023-11-19T04:43:37;8.17;;;4.70;;
21334;SDS011;69435;52.670;13.544;2023-11-19T04:46:23;5.83;;;4.83;;
21334;SDS011;69435;52.670;13.544;2023-11-19T04:49:10;5.90;;;5.03;;
21334;SDS011;69435;52.670;13.544;2023-11-19T04:51:56;6.90;;;5.23;;
21334;SDS011;69435;52.670;13.544;2023-11-19T04:54:43;5.30;;;4.80;;
21334;SDS011;69435;52.670;13.544;2023-11-19T04:57:30;5.57;;;5.03;;
21334;SDS011;69435;52.670;13.544;2023-11-19T05:00:18;7.77;;;5.63;;
21334;SDS011;69435;52.670;13.544;2023-11-19T05:03:04;5.97;;;4.57;;
21334;SDS011;69435;52.670;13.544;2023-11-19T05:05:50;6.50;;;5.30;;
21334;SDS011;69435;52.670;13.544;2023-11-19T05:08:36;6.10;;;4.57;;
21334;SDS011;69435;52.670;13.544;2023-11-19T05:11:22;5.73;;;5.17;;
21334;SDS011;69435;52.670;13.544;2023-11-19T05:14:08;5.63;;;5.03;;
21334;SDS011;69435;52.670;13.544;2023-11-19T05:16:54;7.60;;;4.80;;
21334;SDS011;69435;52.670;13.544;2023-11-19T05:19:40;7.53;;;5.80;;
21334;SDS011;69435;52.670;13.544;2023-11-19T05:22:26;5.70;;;5.10;;
21334;SDS011;69435;52.670;13.544;2023-11-19T05:25:12;7.93;;;5.50;;
21334;SDS011;69435;52.670;13.544;2023-11-19T05:27:58;6.53;;;5.83;;
21334;SDS011;69435;52.670;13.544;2023-11-19T05:30:44;9.60;;;5.37;;
21334;SDS011;69435;52.670;13.544;2023-11-19T05:33:31;6.13;;;5.07;;
21334;SDS011;69435;52.670;13.544;2023-11-19T05:36:17;5.93;;;4.63;;
21334;SDS011;69435;52.670;13.544;2023-11-19T05:39:03;5.73;;;5.23;;
21334;SDS011;69435;52.670;13.544;2023-11-19T05:41:50;6.67;;;6.03;;
21334;SDS011;69435;52.670;13.544;2023-11-19T05:44:36;7.13;;;5.43;;
21334;SDS011;69435;52.670;13.544;2023-11-19T05:47:23;8.53;;;4.90;;
21334;SDS011;69435;52.670;13.544;2023-11-19T05:50:09;5.83;;;5.23;;
21334;SDS011;69435;52.670;13.544;2023-11-19T05:52:55;6.83;;;5.63;;
21334;SDS011;69435;52.670;13.544;2023-11-19T05:55:41;7.63;;;5.43;;
21334;SDS011;69435;52.670;13.544;2023-11-19T05:58:41;6.93;;;5.23;;
21334;SDS011;69435;52.670;13.544;2023-11-19T06:01:27;7.47;;;6.40;;
21334;SDS011;69435;52.670;13.544;2023-11-19T06:04:14;5.43;;;4.93;;
21334;SDS011;69435;52.670;13.544;2023-11-19T06:07:01;5.57;;;5.07;;
21334;SDS011;69435;52.670;13.544;2023-11-19T06:09:47;5.57;;;4.70;;
21334;SDS011;69435;52.670;13.544;2023-11-19T06:12:33;5.10;;;4.60;;
21334;SDS011;69435;52.670;13.544;2023-11-19T06:15:22;6.03;;;5.43;;
21334;SDS011;69435;52.670;13.544;2023-11-19T06:18:08;5.17;;;4.67;;
21334;SDS011;69435;52.670;13.544;2023-11-19T06:20:57;6.53;;;5.50;;
21334;SDS011;69435;52.670;13.544;2023-11-19T06:23:43;7.10;;;5.17;;
21334;SDS011;69435;52.670;13.544;2023-11-19T06:26:29;5.10;;;4.60;;
21334;SDS011;69435;52.670;13.544;2023-11-19T06:29:16;4.77;;;4.33;;
21334;SDS011;69435;52.670;13.544;2023-11-19T06:32:05;4.30;;;3.73;;
21334;SDS011;69435;52.670;13.544;2023-11-19T06:34:51;5.20;;;4.70;;
21334;SDS011;69435;52.670;13.544;2023-11-19T06:37:41;5.83;;;4.50;;
21334;SDS011;69435;52.670;13.544;2023-11-19T06:40:27;5.30;;;4.80;;
21334;SDS011;69435;52.670;13.544;2023-11-19T06:43:13;5.00;;;4.50;;
21334;SDS011;69435;52.670;13.544;2023-11-19T06:45:59;4.60;;;4.20;;
21334;SDS011;69435;52.670;13.544;2023-11-19T06:48:45;3.93;;;3.63;;
21334;SDS011;69435;52.670;13.544;2023-11-19T06:51:31;6.07;;;4.00;;
21334;SDS011;69435;52.670;13.544;2023-11-19T06:54:17;3.70;;;3.40;;
21334;SDS011;69435;52.670;13.544;2023-11-19T06:57:03;3.80;;;3.47;;
21334;SDS011;69435;52.670;13.544;2023-11-19T06:59:50;4.20;;;3.80;;
21334;SDS011;69435;52.670;13.544;2023-11-19T07:02:36;4.93;;;4.03;;
21334;SDS011;69435;52.670;13.544;2023-11-19T07:05:22;7.93;;;3.93;;
21334;SDS011;69435;52.670;13.544;2023-11-19T07:08:09;4.03;;;3.53;;
21334;SDS011;69435;52.670;13.544;2023-11-19T07:10:55;5.00;;;4.50;;
21334;SDS011;69435;52.670;13.544;2023-11-19T07:13:41;4.43;;;4.00;;
21334;SDS011;69435;52.670;13.544;2023-11-19T07:16:27;4.37;;;3.93;;
21334;SDS011;69435;52.670;13.544;2023-11-19T07:19:13;4.33;;;3.73;;
21334;SDS011;69435;52.670;13.544;2023-11-19T07:22:00;4.30;;;3.90;;
21334;SDS011;69435;52.670;13.544;2023-11-19T07:24:46;5.40;;;3.90;;
21334;SDS011;69435;52.670;13.544;2023-11-19T07:27:32;4.37;;;3.33;;
21334;SDS011;69435;52.670;13.544;2023-11-19T07:30:18;3.33;;;3.03;;
21334;SDS011;69435;52.670;13.544;2023-11-19T07:33:04;4.30;;;3.90;;
21334;SDS011;69435;52.670;13.544;2023-11-19T07:35:50;4.00;;;3.60;;
21334;SDS011;69435;52.670;13.544;2023-11-19T07:38:37;3.50;;;3.20;;
21334;SDS011;69435;52.670;13.544;2023-11-19T07:41:24;3.57;;;3.27;;
21334;SDS011;69435;52.670;13.544;2023-11-19T07:44:11;3.50;;;3.20;;
21334;SDS011;69435;52.670;13.544;2023-11-19T07:46:57;3.73;;;3.43;;
21334;SDS011;69435;52.670;13.544;2023-11-19T07:49:43;3.93;;;3.60;;
21334;SDS011;69435;52.670;13.544;2023-11-19T07:52:29;3.60;;;3.30;;
21334;SDS011;69435;52.670;13.544;2023-11-19T07:55:16;3.33;;;3.03;;
21334;SDS011;69435;52.670;13.544;2023-11-19T07:58:02;3.80;;;3.40;;
21334;SDS011;69435;52.670;13.544;2023-11-19T08:00:48;3.73;;;3.43;;
21334;SDS011;69435;52.670;13.544;2023-11-19T08:03:34;3.60;;;3.30;;
21334;SDS011;69435;52.670;13.544;2023-11-19T08:06:20;3.80;;;3.43;;
21334;SDS011;69435;52.670;13.544;2023-11-19T08:09:07;3.60;;;3.30;;
21334;SDS011;69435;52.670;13.544;2023-11-19T08:11:58;3.70;;;3.40;;
21334;SDS011;69435;52.670;13.544;2023-11-19T08:14:44;3.63;;;3.33;;
21334;SDS011;69435;52.670;13.544;2023-11-19T08:17:30;3.50;;;2.97;;
21334;SDS011;69435;52.670;13.544;2023-11-19T08:20:16;4.20;;;3.80;;
21334;SDS011;69435;52.670;13.544;2023-11-19T08:23:03;8.00;;;4.90;;
21334;SDS011;69435;52.670;13.544;2023-11-19T08:25:49;13.10;;;7.10;;
21334;SDS011;69435;52.670;13.544;2023-11-19T08:28:35;4.87;;;4.47;;
21334;SDS011;69435;52.670;13.544;2023-11-19T08:31:21;4.73;;;4.33;;
21334;SDS011;69435;52.670;13.544;2023-11-19T08:34:07;4.43;;;4.07;;
21334;SDS011;69435;52.670;13.544;2023-11-19T08:36:54;5.63;;;4.37;;
21334;SDS011;69435;52.670;13.544;2023-11-19T08:39:40;4.37;;;3.97;;
21334;SDS011;69435;52.670;13.544;2023-11-19T08:42:27;5.70;;;5.10;;
21334;SDS011;69435;52.670;13.544;2023-11-19T08:45:13;5.23;;;4.83;;
21334;SDS011;69435;52.670;13.544;2023-11-19T08:47:59;6.63;;;5.87;;
21334;SDS011;69435;52.670;13.544;2023-11-19T08:50:45;5.43;;;4.93;;
21334;SDS011;69435;52.670;13.544;2023-11-19T08:53:31;5.80;;;5.30;;
21334;SDS011;69435;52.670;13.544;2023-11-19T08:56:18;4.87;;;4.47;;
21334;SDS011;69435;52.670;13.544;2023-11-19T08:59:04;6.63;;;5.30;;
21334;SDS011;69435;52.670;13.544;2023-11-19T09:01:50;6.40;;;5.90;;
21334;SDS011;69435;52.670;13.544;2023-11-19T09:04:36;5.37;;;4.87;;
21334;SDS011;69435;52.670;13.544;2023-11-19T09:07:22;6.13;;;5.53;;
21334;SDS011;69435;52.670;13.544;2023-11-19T09:10:09;6.10;;;5.50;;
21334;SDS011;69435;52.670;13.544;2023-11-19T09:12:56;7.90;;;6.03;;
21334;SDS011;69435;52.670;13.544;2023-11-19T09:15:42;7.40;;;6.47;;
21334;SDS011;69435;52.670;13.544;2023-11-19T09:18:29;6.93;;;6.33;;
21334;SDS011;69435;52.670;13.544;2023-11-19T09:21:15;7.30;;;6.53;;
21334;SDS011;69435;52.670;13.544;2023-11-19T09:24:01;7.47;;;6.57;;
21334;SDS011;69435;52.670;13.544;2023-11-19T09:26:48;10.70;;;6.90;;
21334;SDS011;69435;52.670;13.544;2023-11-19T09:29:34;7.13;;;6.43;;
21334;SDS011;69435;52.670;13.544;2023-11-19T09:32:20;9.43;;;7.23;;
21334;SDS011;69435;52.670;13.544;2023-11-19T09:35:07;7.23;;;6.07;;
21334;SDS011;69435;52.670;13.544;2023-11-19T09:37:53;9.80;;;6.00;;
21334;SDS011;69435;52.670;13.544;2023-11-19T09:40:39;8.73;;;6.40;;
21334;SDS011;69435;52.670;13.544;2023-11-19T09:43:26;8.37;;;7.03;;
21334;SDS011;69435;52.670;13.544;2023-11-19T09:46:14;11.93;;;8.70;;
21334;SDS011;69435;52.670;13.544;2023-11-19T09:49:01;17.93;;;10.13;;
21334;SDS011;69435;52.670;13.544;2023-11-19T09:51:50;17.17;;;10.47;;
21334;SDS011;69435;52.670;13.544;2023-11-19T09:54:36;15.40;;;9.80;;
21334;SDS011;69435;52.670;13.544;2023-11-19T09:57:22;9.00;;;8.07;;
21334;SDS011;69435;52.670;13.544;2023-11-19T10:00:08;10.17;;;8.70;;
21334;SDS011;69435;52.670;13.544;2023-11-19T10:02:58;12.77;;;9.10;;
21334;SDS011;69435;52.670;13.544;2023-11-19T10:05:45;9.33;;;7.87;;
21334;SDS011;69435;52.670;13.544;2023-11-19T10:08:31;9.73;;;8.40;;
21334;SDS011;69435;52.670;13.544;2023-11-19T10:11:18;8.90;;;7.90;;
21334;SDS011;69435;52.670;13.544;2023-11-19T10:14:04;10.87;;;7.47;;
21334;SDS011;69435;52.670;13.544;2023-11-19T10:16:51;8.90;;;7.97;;
21334;SDS011;69435;52.670;13.544;2023-11-19T10:19:39;7.57;;;6.83;;
21334;SDS011;69435;52.670;13.544;2023-11-19T10:22:29;8.53;;;6.90;;
21334;SDS011;69435;52.670;13.544;2023-11-19T10:25:28;8.77;;;6.57;;
21334;SDS011;69435;52.670;13.544;2023-11-19T10:28:15;8.50;;;6.60;;
21334;SDS011;69435;52.670;13.544;2023-11-19T10:31:04;6.53;;;5.83;;
21334;SDS011;69435;52.670;13.544;2023-11-19T10:33:51;12.37;;;6.40;;
21334;SDS011;69435;52.670;13.544;2023-11-19T10:36:38;8.40;;;5.90;;
21334;SDS011;69435;52.670;13.544;2023-11-19T10:39:33;8.50;;;5.80;;
21334;SDS011;69435;52.670;13.544;2023-11-19T10:42:41;16.20;;;5.40;;
21334;SDS011;69435;52.670;13.544;2023-11-19T10:45:27;7.73;;;6.10;;
21334;SDS011;69435;52.670;13.544;2023-11-19T10:48:14;16.47;;;6.40;;
21334;SDS011;69435;52.670;13.544;2023-11-19T10:51:01;10.73;;;5.47;;
21334;SDS011;69435;52.670;13.544;2023-11-19T10:53:56;7.53;;;5.37;;
21334;SDS011;69435;52.670;13.544;2023-11-19T10:56:54;11.83;;;5.10;;
21334;SDS011;69435;52.670;13.544;2023-11-19T10:59:44;6.43;;;4.90;;
21334;SDS011;69435;52.670;13.544;2023-11-19T11:02:33;6.73;;;4.70;;
21334;SDS011;69435;52.670;13.544;2023-11-19T11:05:28;5.23;;;3.47;;
21334;SDS011;69435;52.670;13.544;2023-11-19T11:08:19;4.87;;;3.37;;
21334;SDS011;69435;52.670;13.544;2023-11-19T11:11:07;8.43;;;3.50;;
21334;SDS011;69435;52.670;13.544;2023-11-19T11:13:55;7.30;;;3.50;;
21334;SDS011;69435;52.670;13.544;2023-11-19T11:16:46;7.93;;;3.53;;
21334;SDS011;69435;52.670;13.544;2023-11-19T11:19:35;5.37;;;3.60;;
21334;SDS011;69435;52.670;13.544;2023-11-19T11:22:22;8.47;;;3.27;;
21334;SDS011;69435;52.670;13.544;2023-11-19T11:38:06;9.23;;;2.27;;
21334;SDS011;69435;52.670;13.544;2023-11-19T11:41:14;10.40;;;3.07;;
21334;SDS011;69435;52.670;13.544;2023-11-19T11:44:04;5.23;;;3.07;;
21334;SDS011;69435;52.670;13.544;2023-11-19T11:46:54;8.07;;;3.00;;
21334;SDS011;69435;52.670;13.544;2023-11-19T11:49:40;5.70;;;2.20;;
21334;SDS011;69435;52.670;13.544;2023-11-19T11:52:26;7.90;;;2.80;;
21334;SDS011;69435;52.670;13.544;2023-11-19T11:55:12;5.50;;;1.90;;
21334;SDS011;69435;52.670;13.544;2023-11-19T11:57:59;9.37;;;2.50;;
21334;SDS011;69435;52.670;13.544;2023-11-19T12:00:46;8.90;;;3.00;;
21334;SDS011;69435;52.670;13.544;2023-11-19T12:03:33;6.10;;;2.63;;
21334;SDS011;69435;52.670;13.544;2023-11-19T12:06:20;6.87;;;2.50;;
21334;SDS011;69435;52.670;13.544;2023-11-19T12:09:07;9.23;;;3.00;;
21334;SDS011;69435;52.670;13.544;2023-11-19T12:12:07;7.73;;;3.00;;
21334;SDS011;69435;52.670;13.544;2023-11-19T12:15:00;7.50;;;3.03;;
21334;SDS011;69435;52.670;13.544;2023-11-19T12:17:51;9.20;;;3.10;;
21334;SDS011;69435;52.670;13.544;2023-11-19T12:20:38;13.50;;;3.30;;
21334;SDS011;69435;52.670;13.544;2023-11-19T12:23:25;11.83;;;3.17;;
21334;SDS011;69435;52.670;13.544;2023-11-19T12:26:36;11.40;;;3.07;;
21334;SDS011;69435;52.670;13.544;2023-11-19T12:29:24;12.80;;;3.40;;
21334;SDS011;69435;52.670;13.544;2023-11-19T12:32:10;13.20;;;3.03;;
21334;SDS011;69435;52.670;13.544;2023-11-19T12:34:57;10.37;;;2.60;;
21334;SDS011;69435;52.670;13.544;2023-11-19T12:37:43;6.03;;;3.00;;
21334;SDS011;69435;52.670;13.544;2023-11-19T12:40:32;14.07;;;3.10;;
21334;SDS011;69435;52.670;13.544;2023-11-19T12:43:21;11.37;;;3.23;;
21334;SDS011;69435;52.670;13.544;2023-11-19T12:46:20;10.63;;;3.63;;
21334;SDS011;69435;52.670;13.544;2023-11-19T12:49:08;10.97;;;2.80;;
21334;SDS011;69435;52.670;13.544;2023-11-19T12:51:59;5.47;;;2.93;;
21334;SDS011;69435;52.670;13.544;2023-11-19T12:54:46;7.97;;;3.23;;
21334;SDS011;69435;52.670;13.544;2023-11-19T12:57:35;6.63;;;3.17;;
21334;SDS011;69435;52.670;13.544;2023-11-19T13:00:28;15.10;;;3.30;;
21334;SDS011;69435;52.670;13.544;2023-11-19T13:03:22;17.07;;;3.37;;
21334;SDS011;69435;52.670;13.544;2023-11-19T13:06:18;12.40;;;3.30;;
21334;SDS011;69435;52.670;13.544;2023-11-19T13:09:06;11.77;;;3.00;;
21334;SDS011;69435;52.670;13.544;2023-11-19T13:11:55;15.17;;;3.43;;
21334;SDS011;69435;52.670;13.544;2023-11-19T13:14:42;13.87;;;3.33;;
21334;SDS011;69435;52.670;13.544;2023-11-19T13:17:29;9.53;;;4.00;;
21334;SDS011;69435;52.670;13.544;2023-11-19T13:20:15;7.40;;;3.00;;
21334;SDS011;69435;52.670;13.544;2023-11-19T13:23:05;13.47;;;3.80;;
21334;SDS011;69435;52.670;13.544;2023-11-19T13:25:52;9.60;;;3.57;;
21334;SDS011;69435;52.670;13.544;2023-11-19T13:28:38;10.57;;;3.30;;
21334;SDS011;69435;52.670;13.544;2023-11-19T13:31:24;7.83;;;2.53;;
21334;SDS011;69435;52.670;13.544;2023-11-19T13:34:11;9.67;;;3.40;;
21334;SDS011;69435;52.670;13.544;2023-11-19T13:36:57;8.97;;;2.70;;
21334;SDS011;69435;52.670;13.544;2023-11-19T13:39:43;8.90;;;2.10;;
21334;SDS011;69435;52.670;13.544;2023-11-19T13:42:29;5.43;;;2.20;;
21334;SDS011;69435;52.670;13.544;2023-11-19T13:45:15;8.60;;;3.17;;
21334;SDS011;69435;52.670;13.544;2023-11-19T13:48:03;4.20;;;2.20;;
21334;SDS011;69435;52.670;13.544;2023-11-19T13:50:50;9.73;;;2.60;;
21334;SDS011;69435;52.670;13.544;2023-11-19T13:53:36;6.77;;;2.30;;
21334;SDS011;69435;52.670;13.544;2023-11-19T13:56:23;11.63;;;3.27;;
21334;SDS011;69435;52.670;13.544;2023-11-19T13:59:10;10.60;;;3.00;;
21334;SDS011;69435;52.670;13.544;2023-11-19T14:01:56;5.17;;;2.07;;
21334;SDS011;69435;52.670;13.544;2023-11-19T14:04:42;12.67;;;3.87;;
21334;SDS011;69435;52.670;13.544;2023-11-19T14:07:28;11.53;;;2.93;;
21334;SDS011;69435;52.670;13.544;2023-11-19T14:10:14;19.57;;;3.17;;
21334;SDS011;69435;52.670;13.544;2023-11-19T14:13:01;12.23;;;3.53;;
21334;SDS011;69435;52.670;13.544;2023-11-19T14:15:47;15.87;;;2.90;;
21334;SDS011;69435;52.670;13.544;2023-11-19T14:18:35;11.30;;;2.53;;
21334;SDS011;69435;52.670;13.544;2023-11-19T14:21:21;14.67;;;2.30;;
21334;SDS011;69435;52.670;13.544;2023-11-19T14:24:07;11.70;;;2.80;;
21334;SDS011;69435;52.670;13.544;2023-11-19T14:26:53;14.47;;;3.90;;
21334;SDS011;69435;52.670;13.544;2023-11-19T14:29:39;13.80;;;2.90;;
21334;SDS011;69435;52.670;13.544;2023-11-19T14:32:25;14.20;;;3.03;;
21334;SDS011;69435;52.670;13.544;2023-11-19T14:35:11;10.97;;;3.47;;
21334;SDS011;69435;52.670;13.544;2023-11-19T14:37:58;9.17;;;2.73;;
21334;SDS011;69435;52.670;13.544;2023-11-19T14:40:44;12.20;;;3.80;;
21334;SDS011;69435;52.670;13.544;2023-11-19T14:43:30;16.33;;;3.90;;
21334;SDS011;69435;52.670;13.544;2023-11-19T14:46:17;19.43;;;3.60;;
21334;SDS011;69435;52.670;13.544;2023-11-19T14:49:03;17.77;;;3.77;;
21334;SDS011;69435;52.670;13.544;2023-11-19T14:51:50;12.87;;;2.83;;
21334;SDS011;69435;52.670;13.544;2023-11-19T14:54:36;16.27;;;4.07;;
21334;SDS011;69435;52.670;13.544;2023-11-19T14:57:23;16.13;;;3.80;;
21334;SDS011;69435;52.670;13.544;2023-11-19T15:00:10;9.47;;;2.80;;
21334;SDS011;69435;52.670;13.544;2023-11-19T15:03:00;12.07;;;3.30;;
21334;SDS011;69435;52.670;13.544;2023-11-19T15:05:46;14.20;;;3.60;;
21334;SDS011;69435;52.670;13.544;2023-11-19T15:08:32;11.23;;;3.03;;
21334;SDS011;69435;52.670;13.544;2023-11-19T15:11:19;21.17;;;4.20;;
21334;SDS011;69435;52.670;13.544;2023-11-19T15:14:05;7.53;;;3.07;;
21334;SDS011;69435;52.670;13.544;2023-11-19T15:16:51;13.83;;;3.37;;
21334;SDS011;69435;52.670;13.544;2023-11-19T15:19:37;15.47;;;3.63;;
21334;SDS011;69435;52.670;13.544;2023-11-19T15:22:24;9.77;;;2.93;;
21334;SDS011;69435;52.670;13.544;2023-11-19T15:25:10;10.83;;;3.20;;
21334;SDS011;69435;52.670;13.544;2023-11-19T15:27:57;12.83;;;3.10;;
21334;SDS011;69435;52.670;13.544;2023-11-19T15:30:43;11.00;;;3.33;;
21334;SDS011;69435;52.670;13.544;2023-11-19T15:33:29;16.50;;;3.83;;
21334;SDS011;69435;52.670;13.544;2023-11-19T15:36:15;9.83;;;3.20;;
21334;SDS011;69435;52.670;13.544;2023-11-19T15:39:03;19.27;;;3.63;;
21334;SDS011;69435;52.670;13.544;2023-11-19T15:41:50;15.50;;;3.23;;
21334;SDS011;69435;52.670;13.544;2023-11-19T15:44:36;12.60;;;3.73;;
21334;SDS011;69435;52.670;13.544;2023-11-19T15:47:24;12.90;;;3.47;;
21334;SDS011;69435;52.670;13.544;2023-11-19T15:50:10;16.13;;;3.87;;
21334;SDS011;69435;52.670;13.544;2023-11-19T15:52:56;11.50;;;2.83;;
21334;SDS011;69435;52.670;13.544;2023-11-19T15:55:42;15.13;;;3.80;;
21334;SDS011;69435;52.670;13.544;2023-11-19T15:58:29;19.23;;;3.70;;
21334;SDS011;69435;52.670;13.544;2023-11-19T16:01:15;14.30;;;3.77;;
21334;SDS011;69435;52.670;13.544;2023-11-19T16:04:03;15.93;;;3.33;;
21334;SDS011;69435;52.670;13.544;2023-11-19T16:06:50;10.50;;;3.43;;
21334;SDS011;69435;52.670;13.544;2023-11-19T16:09:36;11.10;;;3.07;;
21334;SDS011;69435;52.670;13.544;2023-11-19T16:12:23;22.07;;;3.93;;
21334;SDS011;69435;52.670;13.544;2023-11-19T16:15:10;14.57;;;3.37;;
21334;SDS011;69435;52.670;13.544;2023-11-19T16:17:56;13.83;;;3.43;;
21334;SDS011;69435;52.670;13.544;2023-11-19T16:20:42;11.17;;;3.30;;
21334;SDS011;69435;52.670;13.544;2023-11-19T16:23:30;17.50;;;4.00;;
21334;SDS011;69435;52.670;13.544;2023-11-19T16:26:16;15.97;;;3.27;;
21334;SDS011;69435;52.670;13.544;2023-11-19T16:29:02;22.13;;;3.07;;
21334;SDS011;69435;52.670;13.544;2023-11-19T16:31:48;13.77;;;4.47;;
21334;SDS011;69435;52.670;13.544;2023-11-19T16:34:36;10.20;;;2.80;;
21334;SDS011;69435;52.670;13.544;2023-11-19T16:37:27;15.17;;;3.20;;
21334;SDS011;69435;52.670;13.544;2023-11-19T16:40:13;8.33;;;2.77;;
21334;SDS011;69435;52.670;13.544;2023-11-19T16:43:01;13.87;;;2.90;;